createdAt,value
2022-11-14T00:06:32.233Z,15.00
2022-11-14T00:16:35.897Z,15.00
2022-11-14T00:26:41.032Z,15.10
2022-11-14T00:36:44.950Z,15.20
2022-11-14T00:46:50.030Z,15.20
2022-11-14T00:56:54.190Z,15.30
2022-11-14T01:06:59.439Z,15.20
2022-11-14T01:17:03.185Z,15.20
2022-11-14T01:27:08.352Z,15.20
2022-11-14T01:37:12.645Z,15.30
2022-11-14T01:47:20.655Z,15.40
2022-11-14T01:57:29.035Z,15.40
2022-11-14T02:07:37.302Z,15.30
2022-11-14T02:17:42.737Z,15.30
2022-11-14T02:27:48.426Z,15.60
2022-11-14T02:37:52.374Z,15.80
2022-11-14T02:47:57.421Z,15.70
2022-11-14T02:58:01.181Z,15.50
2022-11-14T03:08:06.539Z,15.70
2022-11-14T03:18:12.233Z,15.40
2022-11-14T03:28:17.372Z,15.50
2022-11-14T03:38:23.460Z,15.50
2022-11-14T03:48:29.072Z,15.70
2022-11-14T03:58:33.340Z,15.70
2022-11-14T04:08:40.634Z,15.80
2022-11-14T04:18:44.422Z,16.00
2022-11-14T04:28:49.486Z,16.20
2022-11-14T04:38:55.770Z,16.30
2022-11-14T04:49:01.034Z,16.00
2022-11-14T04:59:04.824Z,15.80
2022-11-14T05:09:10.213Z,15.60
2022-11-14T05:19:14.066Z,15.50
2022-11-14T05:29:19.439Z,15.60
2022-11-14T05:39:23.281Z,15.60
2022-11-14T05:49:31.267Z,15.60
2022-11-14T05:59:35.032Z,15.50
2022-11-14T06:09:40.175Z,15.50
2022-11-14T06:19:43.837Z,15.20
2022-11-14T06:29:48.932Z,15.20
2022-11-14T06:39:55.460Z,15.40
2022-11-14T06:50:01.129Z,15.70
2022-11-14T07:00:06.663Z,15.70
2022-11-14T07:10:12.311Z,16.00
2022-11-14T07:20:18.683Z,15.90
2022-11-14T07:30:23.877Z,16.00
2022-11-14T07:40:27.546Z,16.20
2022-11-14T07:50:32.668Z,16.60
2022-11-14T08:00:36.975Z,17.00
2022-11-14T08:10:42.298Z,17.50
2022-11-14T08:20:46.136Z,17.90
2022-11-14T08:30:51.523Z,18.30
2022-11-14T08:40:55.520Z,18.30
2022-11-14T08:51:04.881Z,18.20
2022-11-14T09:01:09.427Z,18.50
2022-11-14T09:11:19.080Z,18.60
2022-11-14T09:21:23.399Z,18.70
2022-11-14T09:31:33.531Z,19.20
2022-11-14T09:41:50.618Z,19.40
2022-11-14T09:52:01.129Z,19.80
2022-11-14T10:02:17.170Z,20.30
2022-11-14T10:12:38.054Z,20.50
2022-11-14T10:23:01.588Z,20.80
2022-11-14T10:33:18.511Z,21.20
2022-11-14T10:43:27.966Z,21.90
2022-11-14T10:53:44.009Z,21.20
2022-11-14T11:03:47.837Z,20.80
2022-11-14T11:13:56.582Z,22.20
2022-11-14T11:24:00.379Z,23.60
2022-11-14T11:34:10.657Z,23.90
2022-11-14T11:44:17.986Z,23.70
2022-11-14T11:54:28.761Z,24.20
2022-11-14T12:04:33.279Z,24.40
2022-11-14T12:15:02.939Z,24.00
2022-11-14T12:25:26.925Z,23.40
2022-11-14T12:35:35.551Z,23.20
2022-11-14T12:46:00.155Z,23.80
2022-11-14T12:56:35.681Z,23.50
2022-11-14T13:06:48.377Z,22.50
2022-11-14T13:17:10.297Z,22.10
2022-11-14T13:27:52.391Z,22.40
2022-11-14T13:38:20.269Z,21.90
2022-11-14T13:48:49.285Z,21.50
2022-11-14T13:59:23.650Z,21.50
2022-11-14T14:09:33.968Z,21.80
2022-11-14T14:19:53.853Z,21.60
2022-11-14T14:30:04.787Z,21.60
2022-11-14T14:40:25.590Z,21.80
2022-11-14T14:50:32.509Z,21.80
2022-11-14T15:00:38.328Z,22.60
2022-11-14T15:10:42.946Z,21.10
2022-11-14T15:21:08.432Z,21.80
2022-11-14T15:31:20.275Z,21.50
2022-11-14T15:41:28.105Z,21.60
2022-11-14T15:51:46.093Z,21.00
2022-11-14T16:01:58.293Z,21.10
2022-11-14T16:12:02.025Z,21.00
2022-11-14T16:22:08.076Z,21.00
2022-11-14T16:32:12.573Z,20.80
2022-11-14T16:42:17.675Z,20.70
2022-11-14T16:52:21.683Z,20.60
2022-11-14T17:02:26.787Z,20.60
2022-11-14T17:12:30.976Z,20.30
2022-11-14T17:22:36.371Z,19.90
2022-11-14T17:32:40.103Z,20.10
2022-11-14T17:42:45.141Z,20.20
2022-11-14T17:52:48.808Z,20.00
2022-11-14T18:02:53.943Z,20.10
2022-11-14T18:12:57.662Z,19.80
2022-11-14T18:23:02.884Z,20.00
2022-11-14T18:33:06.604Z,20.00
2022-11-14T18:43:11.657Z,19.90
2022-11-14T18:53:15.437Z,19.90
2022-11-14T19:03:20.979Z,19.90
2022-11-14T19:13:26.067Z,20.00
2022-11-14T19:23:32.191Z,20.10
2022-11-14T19:33:36.421Z,20.10
2022-11-14T19:43:43.633Z,20.00
2022-11-14T19:53:48.864Z,19.90
2022-11-14T20:03:55.276Z,19.90
2022-11-14T20:14:00.116Z,19.70
2022-11-14T20:24:05.591Z,19.70
2022-11-14T20:34:09.622Z,19.70
2022-11-14T20:44:15.150Z,19.40
2022-11-14T20:54:19.095Z,19.70
2022-11-14T21:04:24.253Z,19.50
2022-11-14T21:14:29.626Z,19.30
2022-11-14T21:24:39.543Z,19.20
2022-11-14T21:34:45.183Z,19.00
2022-11-14T21:44:53.433Z,18.80
2022-11-14T21:54:57.502Z,18.80
2022-11-14T22:05:02.921Z,18.60
2022-11-14T22:15:07.431Z,18.50
2022-11-14T22:25:14.524Z,18.40
2022-11-14T22:35:18.435Z,17.90
2022-11-14T22:45:26.818Z,17.90
2022-11-14T22:55:30.508Z,18.00
2022-11-14T23:05:38.480Z,18.00
2022-11-14T23:15:49.231Z,18.00
2022-11-14T23:25:54.193Z,18.10
2022-11-14T23:35:58.404Z,18.20
2022-11-14T23:46:03.679Z,17.90
2022-11-14T23:56:07.682Z,17.50
